createdAt,value
2023-04-18T00:02:17.719Z,1.95
2023-04-18T00:04:46.506Z,1.80
2023-04-18T00:07:16.472Z,2.17
2023-04-18T00:09:45.109Z,1.77
2023-04-18T00:12:13.335Z,2.05
2023-04-18T00:14:41.410Z,2.08
2023-04-18T00:17:10.847Z,2.10
2023-04-18T00:19:43.445Z,2.13
2023-04-18T00:22:11.826Z,2.00
2023-04-18T00:24:39.902Z,2.28
2023-04-18T00:27:08.042Z,1.85
2023-04-18T00:29:36.122Z,2.15
2023-04-18T00:32:04.228Z,2.10
2023-04-18T00:34:32.261Z,2.13
2023-04-18T00:37:01.878Z,2.10
2023-04-18T00:39:29.910Z,2.20
2023-04-18T00:41:57.969Z,2.05
2023-04-18T00:44:26.120Z,2.10
2023-04-18T00:46:54.124Z,2.28
2023-04-18T00:49:22.988Z,1.90
2023-04-18T00:51:51.629Z,2.20
2023-04-18T00:54:21.827Z,2.00
2023-04-18T00:56:50.145Z,2.28
2023-04-18T00:59:18.151Z,2.40
2023-04-18T01:01:46.303Z,2.42
2023-04-18T01:04:14.890Z,2.22
2023-04-18T01:06:45.661Z,2.00
2023-04-18T01:09:14.819Z,2.22
2023-04-18T01:11:44.206Z,2.45
2023-04-18T01:14:12.515Z,2.50
2023-04-18T01:16:40.810Z,2.33
2023-04-18T01:19:08.798Z,2.30
2023-04-18T01:21:37.503Z,2.42
2023-04-18T01:24:12.740Z,2.45
2023-04-18T01:26:41.440Z,1.95
2023-04-18T01:29:09.512Z,2.08
2023-04-18T01:31:38.677Z,2.35
2023-04-18T01:34:07.823Z,2.22
2023-04-18T01:36:36.962Z,2.10
2023-04-18T01:39:05.195Z,2.28
2023-04-18T01:41:34.648Z,2.40
2023-04-18T01:44:02.805Z,2.58
2023-04-18T01:46:30.955Z,2.30
2023-04-18T01:49:00.907Z,2.30
2023-04-18T01:51:29.081Z,2.47
2023-04-18T01:53:57.126Z,2.65
2023-04-18T01:56:25.194Z,2.40
2023-04-18T01:58:54.546Z,2.65
2023-04-18T02:01:22.717Z,2.50
2023-04-18T02:03:51.142Z,2.45
2023-04-18T02:06:19.422Z,2.63
2023-04-18T02:08:47.451Z,2.47
2023-04-18T02:11:15.504Z,2.63
2023-04-18T02:13:43.558Z,2.67
2023-04-18T02:16:14.379Z,2.25
2023-04-18T02:18:44.431Z,2.60
2023-04-18T02:21:12.559Z,2.55
2023-04-18T02:23:40.681Z,2.60
2023-04-18T02:26:08.803Z,2.80
2023-04-18T02:28:39.165Z,2.75
2023-04-18T02:31:07.500Z,2.75
2023-04-18T02:33:37.156Z,2.80
2023-04-18T02:36:06.179Z,2.90
2023-04-18T02:38:34.554Z,2.80
2023-04-18T02:41:02.683Z,2.92
2023-04-18T02:43:30.775Z,2.95
2023-04-18T02:45:58.893Z,2.90
2023-04-18T02:48:27.539Z,3.00
2023-04-18T02:51:03.509Z,3.20
2023-04-18T02:53:31.626Z,2.95
2023-04-18T02:55:59.977Z,2.75
2023-04-18T02:58:28.221Z,3.05
2023-04-18T03:00:57.308Z,3.15
2023-04-18T03:03:26.084Z,3.10
2023-04-18T03:05:54.234Z,3.42
2023-04-18T03:08:23.706Z,3.55
2023-04-18T03:10:51.743Z,3.70
2023-04-18T03:13:19.801Z,3.30
2023-04-18T03:15:48.296Z,3.75
2023-04-18T03:18:16.612Z,3.55
2023-04-18T03:20:44.917Z,3.53
2023-04-18T03:23:12.970Z,3.65
2023-04-18T03:25:42.535Z,3.42
2023-04-18T03:28:10.702Z,3.85
2023-04-18T03:30:38.872Z,3.35
2023-04-18T03:33:07.137Z,4.13
2023-04-18T03:35:35.599Z,4.78
2023-04-18T03:38:03.784Z,4.30
2023-04-18T03:40:31.974Z,4.38
2023-04-18T03:43:01.784Z,4.38
2023-04-18T03:45:30.131Z,3.88
2023-04-18T03:47:58.346Z,3.88
2023-04-18T03:50:26.694Z,3.80
2023-04-18T03:52:54.691Z,3.95
2023-04-18T03:55:22.866Z,4.05
2023-04-18T03:57:50.991Z,4.07
2023-04-18T04:00:20.828Z,4.05
2023-04-18T04:02:49.222Z,3.63
2023-04-18T04:05:17.697Z,3.60
2023-04-18T04:07:45.796Z,4.30
2023-04-18T04:10:13.898Z,3.58
2023-04-18T04:12:42.079Z,3.65
2023-04-18T04:15:11.697Z,3.90
2023-04-18T04:17:41.167Z,3.92
2023-04-18T04:20:10.318Z,3.60
2023-04-18T04:22:38.301Z,3.97
2023-04-18T04:25:07.727Z,3.83
2023-04-18T04:27:36.973Z,3.90
2023-04-18T04:30:05.756Z,3.75
2023-04-18T04:32:34.210Z,4.05
2023-04-18T04:35:04.539Z,3.80
2023-04-18T04:37:33.652Z,3.70
2023-04-18T04:40:02.871Z,4.38
2023-04-18T04:42:31.506Z,4.10
2023-04-18T04:44:59.659Z,4.57
2023-04-18T04:47:27.789Z,4.68
2023-04-18T04:49:56.207Z,3.92
2023-04-18T04:52:25.641Z,3.67
2023-04-18T04:54:53.686Z,4.05
2023-04-18T04:57:21.813Z,3.92
2023-04-18T04:59:49.891Z,3.47
2023-04-18T05:02:17.962Z,3.92
2023-04-18T05:04:46.036Z,4.20
2023-04-18T05:07:14.177Z,3.45
2023-04-18T05:09:45.399Z,3.70
2023-04-18T05:12:13.514Z,4.30
2023-04-18T05:14:41.693Z,3.55
2023-04-18T05:17:09.786Z,3.85
2023-04-18T05:19:37.855Z,4.38
2023-04-18T05:22:05.947Z,4.40
2023-04-18T05:24:34.051Z,4.13
2023-04-18T05:27:03.575Z,4.13
2023-04-18T05:29:31.661Z,4.38
2023-04-18T05:32:03.526Z,4.28
2023-04-18T05:34:31.955Z,4.20
2023-04-18T05:37:00.479Z,4.70
2023-04-18T05:39:47.052Z,4.05
2023-04-18T05:42:16.577Z,3.90
2023-04-18T05:44:44.776Z,4.18
2023-04-18T05:47:13.000Z,4.40
2023-04-18T05:49:41.088Z,4.20
2023-04-18T05:52:09.191Z,3.95
2023-04-18T05:54:37.230Z,3.85
2023-04-18T05:57:05.380Z,3.67
2023-04-18T05:59:34.844Z,4.32
2023-04-18T06:02:02.989Z,3.75
2023-04-18T06:04:31.444Z,3.53
2023-04-18T06:06:59.643Z,3.78
2023-04-18T06:09:27.804Z,3.72
2023-04-18T06:11:55.899Z,3.42
2023-04-18T06:14:23.951Z,3.17
2023-04-18T06:16:53.628Z,3.08
2023-04-18T06:19:22.067Z,3.58
2023-04-18T06:21:50.849Z,3.28
2023-04-18T06:24:19.013Z,3.10
2023-04-18T06:26:47.432Z,3.13
2023-04-18T06:29:19.586Z,2.92
2023-04-18T06:31:52.937Z,3.00
2023-04-18T06:34:22.429Z,3.22
2023-04-18T06:36:50.694Z,2.97
2023-04-18T06:39:18.816Z,2.83
2023-04-18T06:41:46.866Z,3.30
2023-04-18T06:44:14.954Z,2.90
2023-04-18T06:46:43.297Z,3.42
2023-04-18T06:49:11.542Z,2.65
2023-04-18T06:51:40.951Z,2.38
2023-04-18T06:54:09.127Z,2.70
2023-04-18T06:56:37.166Z,2.40
2023-04-18T06:59:05.278Z,2.42
2023-04-18T07:01:34.252Z,2.30
2023-04-18T07:04:02.628Z,3.75
2023-04-18T07:06:31.225Z,2.40
2023-04-18T07:09:01.653Z,2.70
2023-04-18T07:11:29.870Z,2.00
2023-04-18T07:13:57.877Z,2.30
2023-04-18T07:16:25.973Z,2.22
2023-04-18T07:18:54.106Z,2.10
2023-04-18T07:21:22.100Z,2.03
2023-04-18T07:23:50.185Z,2.20
2023-04-18T07:26:19.594Z,2.10
2023-04-18T07:28:47.650Z,2.00
2023-04-18T07:31:16.793Z,1.83
2023-04-18T07:33:45.050Z,2.10
2023-04-18T07:36:13.301Z,2.03
2023-04-18T07:38:41.353Z,2.10
2023-04-18T07:41:09.473Z,2.00
2023-04-18T07:43:40.560Z,2.20
2023-04-18T07:46:08.795Z,1.95
2023-04-18T07:48:36.919Z,1.92
2023-04-18T07:51:05.410Z,1.88
2023-04-18T07:53:33.659Z,1.90
2023-04-18T07:56:01.810Z,1.95
2023-04-18T07:58:29.983Z,1.80
2023-04-18T08:00:59.557Z,1.80
2023-04-18T08:03:28.219Z,1.70
2023-04-18T08:05:56.825Z,1.98
2023-04-18T08:08:24.922Z,2.00
2023-04-18T08:10:53.024Z,2.08
2023-04-18T08:13:21.150Z,2.25
2023-04-18T08:15:49.676Z,1.50
2023-04-18T08:18:19.987Z,1.80
2023-04-18T08:20:48.303Z,1.70
2023-04-18T08:23:16.384Z,1.55
2023-04-18T08:25:44.521Z,1.67
2023-04-18T08:28:12.746Z,1.70
2023-04-18T08:30:41.097Z,1.60
2023-04-18T08:33:09.309Z,1.50
2023-04-18T08:35:38.907Z,1.70
2023-04-18T08:38:06.911Z,1.70
2023-04-18T08:40:35.183Z,1.40
2023-04-18T08:43:05.124Z,1.45
2023-04-18T08:45:33.567Z,1.20
2023-04-18T08:48:03.773Z,1.40
2023-04-18T08:50:32.451Z,1.40
2023-04-18T08:53:02.406Z,1.50
2023-04-18T08:55:30.528Z,1.60
2023-04-18T08:57:58.623Z,1.35
2023-04-18T09:00:27.638Z,1.95
2023-04-18T09:02:57.343Z,1.67
2023-04-18T09:05:27.716Z,1.58
2023-04-18T09:07:57.321Z,1.65
2023-04-18T09:10:32.901Z,1.40
2023-04-18T09:13:03.383Z,1.50
2023-04-18T09:15:32.690Z,1.55
2023-04-18T09:18:03.109Z,1.58
2023-04-18T09:20:38.359Z,1.50
2023-04-18T09:23:10.799Z,1.02
2023-04-18T09:25:47.034Z,1.25
2023-04-18T09:28:27.151Z,2.72
2023-04-18T09:30:56.287Z,1.42
2023-04-18T09:33:29.318Z,1.40
2023-04-18T09:36:01.356Z,1.48
2023-04-18T09:38:41.188Z,1.50
2023-04-18T09:41:12.091Z,1.25
2023-04-18T09:43:40.642Z,1.30
2023-04-18T09:46:09.477Z,1.20
2023-04-18T09:48:37.632Z,1.52
2023-04-18T09:51:08.719Z,1.45
2023-04-18T09:53:40.721Z,1.38
2023-04-18T09:56:15.169Z,1.40
2023-04-18T09:58:45.201Z,1.30
2023-04-18T10:01:13.544Z,1.23
2023-04-18T10:03:46.564Z,1.38
2023-04-18T10:06:18.093Z,1.40
2023-04-18T10:08:47.114Z,1.67
2023-04-18T10:11:18.674Z,1.50
2023-04-18T10:13:49.632Z,1.30
2023-04-18T10:16:18.341Z,1.52
2023-04-18T10:18:46.518Z,1.55
2023-04-18T10:21:15.503Z,1.55
2023-04-18T10:23:43.566Z,1.63
2023-04-18T10:26:12.292Z,1.40
2023-04-18T10:28:58.040Z,1.40
2023-04-18T10:31:27.894Z,1.33
2023-04-18T10:34:04.701Z,1.52
2023-04-18T10:36:34.380Z,1.33
2023-04-18T10:39:04.389Z,1.38
2023-04-18T10:41:33.660Z,1.17
2023-04-18T10:44:23.838Z,1.20
2023-04-18T10:47:32.129Z,1.20
2023-04-18T10:50:09.078Z,1.00
2023-04-18T10:52:37.124Z,1.40
2023-04-18T10:55:25.888Z,1.30
2023-04-18T10:57:56.506Z,1.38
2023-04-18T11:00:27.738Z,1.23
2023-04-18T11:02:58.038Z,1.42
2023-04-18T11:05:27.945Z,1.40
2023-04-18T11:07:56.560Z,1.40
2023-04-18T11:10:26.617Z,1.55
2023-04-18T11:12:56.100Z,1.10
2023-04-18T11:15:25.863Z,1.40
2023-04-18T11:18:00.591Z,1.20
2023-04-18T11:20:29.219Z,1.33
2023-04-18T11:22:59.032Z,1.10
2023-04-18T11:25:29.150Z,1.00
2023-04-18T11:28:00.413Z,1.27
2023-04-18T11:30:29.293Z,1.35
2023-04-18T11:32:59.084Z,1.23
2023-04-18T11:35:27.608Z,1.30
2023-04-18T11:37:56.217Z,1.20
2023-04-18T11:40:24.567Z,1.10
2023-04-18T11:42:56.030Z,0.98
2023-04-18T11:45:24.125Z,1.30
2023-04-18T11:47:58.686Z,1.10
2023-04-18T11:50:27.964Z,1.10
2023-04-18T11:52:56.614Z,0.98
2023-04-18T11:55:27.310Z,1.20
2023-04-18T11:57:56.904Z,1.23
2023-04-18T12:00:33.695Z,1.40
2023-04-18T12:03:05.462Z,1.02
2023-04-18T12:05:36.682Z,1.27
2023-04-18T12:08:10.550Z,1.30
2023-04-18T12:10:39.888Z,1.23
2023-04-18T12:13:09.290Z,1.30
2023-04-18T12:15:40.548Z,1.00
2023-04-18T12:18:10.233Z,1.27
2023-04-18T12:20:39.608Z,0.98
2023-04-18T12:23:08.073Z,1.10
2023-04-18T12:25:36.588Z,1.20
2023-04-18T12:28:16.884Z,1.20
2023-04-18T12:30:45.017Z,1.10
2023-04-18T12:33:14.564Z,1.30
2023-04-18T12:35:42.683Z,0.95
2023-04-18T12:38:12.149Z,1.10
2023-04-18T12:40:40.842Z,1.25
2023-04-18T12:43:09.141Z,1.38
2023-04-18T12:45:37.226Z,1.15
2023-04-18T12:48:05.569Z,1.10
2023-04-18T12:50:35.480Z,1.02
2023-04-18T12:53:03.836Z,1.25
2023-04-18T12:55:32.069Z,1.10
2023-04-18T12:58:00.843Z,1.10
2023-04-18T13:00:31.395Z,1.10
2023-04-18T13:03:00.050Z,1.33
2023-04-18T13:05:32.948Z,2.30
2023-04-18T13:13:02.489Z,1.45
2023-04-18T13:15:30.783Z,1.33
2023-04-18T13:18:04.849Z,1.08
2023-04-18T13:20:33.959Z,1.20
2023-04-18T13:23:03.989Z,1.00
2023-04-18T13:25:32.161Z,1.30
2023-04-18T13:28:01.160Z,1.40
2023-04-18T13:30:29.692Z,1.10
2023-04-18T13:32:58.060Z,1.30
2023-04-18T13:35:26.206Z,1.13
2023-04-18T13:37:54.371Z,1.40
2023-04-18T13:40:24.403Z,1.30
2023-04-18T13:42:52.996Z,1.25
2023-04-18T13:45:22.760Z,1.20
2023-04-18T13:47:51.035Z,1.10
2023-04-18T13:50:19.330Z,1.35
2023-04-18T13:52:49.373Z,1.23
2023-04-18T13:55:18.884Z,1.30
2023-04-18T13:57:48.393Z,1.30
2023-04-18T14:00:17.656Z,1.30
2023-04-18T14:02:46.051Z,1.20
2023-04-18T14:05:14.521Z,1.42
2023-04-18T14:07:43.045Z,1.00
2023-04-18T14:10:12.162Z,1.25
2023-04-18T14:12:40.266Z,1.02
2023-04-18T14:15:11.321Z,1.13
2023-04-18T14:17:39.867Z,1.20
2023-04-18T14:20:09.329Z,0.98
2023-04-18T14:22:37.570Z,1.00
2023-04-18T14:25:06.599Z,1.27
2023-04-18T14:27:34.787Z,1.20
2023-04-18T14:30:02.836Z,1.25
2023-04-18T14:32:32.370Z,1.35
2023-04-18T14:35:00.402Z,1.02
2023-04-18T14:37:28.533Z,1.30
2023-04-18T14:39:56.776Z,1.25
2023-04-18T14:42:24.860Z,1.20
2023-04-18T14:44:52.967Z,1.40
2023-04-18T14:47:21.984Z,1.10
2023-04-18T14:49:51.791Z,1.30
2023-04-18T14:52:19.834Z,2.00
2023-04-18T14:54:47.924Z,1.10
2023-04-18T14:57:16.385Z,1.20
2023-04-18T14:59:44.774Z,1.13
2023-04-18T15:02:13.148Z,1.45
2023-04-18T15:04:41.575Z,1.30
2023-04-18T15:07:11.235Z,1.23
2023-04-18T15:09:39.787Z,1.20
2023-04-18T15:12:08.991Z,1.02
2023-04-18T15:14:37.077Z,1.00
2023-04-18T15:17:07.157Z,1.40
2023-04-18T15:19:35.285Z,1.30
2023-04-18T15:22:03.552Z,1.38
2023-04-18T15:24:33.385Z,1.40
2023-04-18T15:27:02.090Z,1.25
2023-04-18T15:29:30.136Z,1.17
2023-04-18T15:31:58.289Z,1.20
2023-04-18T15:34:26.928Z,1.30
2023-04-18T15:36:55.073Z,1.25
2023-04-18T15:39:24.138Z,1.33
2023-04-18T15:41:55.745Z,1.58
2023-04-18T15:44:24.185Z,1.07
2023-04-18T15:46:52.411Z,1.17
2023-04-18T15:49:20.627Z,1.15
2023-04-18T15:51:49.033Z,1.10
2023-04-18T15:54:20.244Z,1.48
2023-04-18T15:56:48.407Z,1.58
2023-04-18T15:59:17.891Z,1.35
2023-04-18T16:01:46.390Z,1.30
2023-04-18T16:04:14.885Z,1.13
2023-04-18T16:06:43.669Z,1.30
2023-04-18T16:09:19.619Z,1.30
2023-04-18T16:11:48.275Z,1.60
2023-04-18T16:14:18.101Z,1.38
2023-04-18T16:16:51.090Z,1.75
2023-04-18T16:19:21.513Z,1.60
2023-04-18T16:21:49.912Z,1.25
2023-04-18T16:24:18.067Z,1.17
2023-04-18T16:26:46.505Z,1.30
2023-04-18T16:29:15.000Z,1.50
2023-04-18T16:31:45.271Z,1.40
2023-04-18T16:34:16.977Z,1.38
2023-04-18T16:36:45.098Z,1.30
2023-04-18T16:39:13.487Z,1.40
2023-04-18T16:41:53.766Z,1.40
2023-04-18T16:44:30.371Z,1.20
2023-04-18T16:47:15.584Z,1.45
2023-04-18T16:49:58.275Z,1.52
2023-04-18T16:52:32.071Z,1.85
2023-04-18T16:55:02.038Z,1.58
2023-04-18T16:57:35.710Z,1.40
2023-04-18T17:00:07.224Z,1.73
2023-04-18T17:02:39.977Z,1.40
2023-04-18T17:05:09.965Z,1.50
2023-04-18T17:07:41.829Z,1.58
2023-04-18T17:10:12.864Z,1.33
2023-04-18T17:12:46.170Z,1.60
2023-04-18T17:15:29.031Z,1.67
2023-04-18T17:23:15.625Z,1.73
2023-04-18T17:25:43.918Z,1.67
2023-04-18T17:28:12.186Z,1.40
2023-04-18T17:30:42.749Z,1.42
2023-04-18T17:33:13.094Z,1.52
2023-04-18T17:35:42.545Z,1.73
2023-04-18T17:38:11.849Z,1.48
2023-04-18T17:40:41.111Z,1.77
2023-04-18T17:43:09.442Z,5.13
2023-04-18T17:45:39.497Z,1.73
2023-04-18T17:48:08.619Z,1.70
2023-04-18T17:50:39.174Z,1.95
2023-04-18T17:53:07.568Z,1.60
2023-04-18T17:55:36.666Z,1.70
2023-04-18T17:58:05.659Z,1.40
2023-04-18T18:00:34.409Z,1.58
2023-04-18T18:03:03.235Z,1.67
2023-04-18T18:05:32.035Z,1.40
2023-04-18T18:08:03.322Z,1.83
2023-04-18T18:10:33.027Z,1.50
2023-04-18T18:13:02.631Z,1.48
2023-04-18T18:15:31.595Z,2.47
2023-04-18T18:18:01.332Z,1.60
2023-04-18T18:20:33.578Z,1.63
2023-04-18T18:23:05.173Z,1.42
2023-04-18T18:25:33.805Z,1.60
2023-04-18T18:28:04.629Z,2.00
2023-04-18T18:30:33.951Z,1.58
2023-04-18T18:33:04.413Z,1.70
2023-04-18T18:35:34.230Z,1.63
2023-04-18T18:38:05.384Z,1.70
2023-04-18T18:40:35.718Z,1.77
2023-04-18T18:43:04.905Z,1.50
2023-04-18T18:45:34.589Z,1.90
2023-04-18T18:48:04.442Z,2.22
2023-04-18T18:50:33.565Z,1.80
2023-04-18T18:53:03.899Z,1.83
2023-04-18T18:55:32.591Z,1.90
2023-04-18T18:58:00.755Z,1.88
2023-04-18T19:00:29.956Z,1.95
2023-04-18T19:02:59.343Z,1.77
2023-04-18T19:05:29.170Z,1.80
2023-04-18T19:07:58.209Z,1.65
2023-04-18T19:10:30.434Z,1.67
2023-04-18T19:15:31.079Z,2.05
2023-04-18T19:18:02.103Z,2.13
2023-04-18T19:20:31.091Z,2.00
2023-04-18T19:23:00.859Z,1.92
2023-04-18T19:25:30.926Z,1.80
2023-04-18T19:28:00.874Z,2.22
2023-04-18T19:30:31.204Z,1.90
2023-04-18T19:33:01.026Z,1.88
2023-04-18T19:35:29.726Z,2.10
2023-04-18T19:38:02.329Z,2.17
2023-04-18T19:40:33.069Z,2.10
2023-04-18T19:43:02.184Z,2.25
2023-04-18T19:45:32.551Z,2.20
2023-04-18T19:48:04.570Z,2.45
2023-04-18T19:50:35.491Z,2.33
2023-04-18T19:53:05.320Z,2.05
2023-04-18T19:55:37.504Z,2.05
2023-04-18T19:58:07.074Z,2.08
2023-04-18T20:00:36.498Z,2.40
2023-04-18T20:03:06.921Z,2.25
2023-04-18T20:05:35.821Z,2.33
2023-04-18T20:08:06.445Z,2.15
2023-04-18T20:10:40.222Z,1.95
2023-04-18T20:13:09.580Z,1.95
2023-04-18T20:15:39.339Z,2.00
2023-04-18T20:18:08.999Z,2.42
2023-04-18T20:20:37.975Z,2.20
2023-04-18T20:23:07.152Z,2.60
2023-04-18T20:25:39.186Z,2.38
2023-04-18T20:28:09.416Z,2.42
2023-04-18T20:30:39.513Z,2.10
2023-04-18T20:33:08.867Z,2.33
2023-04-18T20:35:37.071Z,2.20
2023-04-18T20:38:07.284Z,2.13
2023-04-18T20:40:40.979Z,1.92
2023-04-18T20:43:11.242Z,1.75
2023-04-18T20:45:43.483Z,1.90
2023-04-18T20:48:13.079Z,1.80
2023-04-18T20:50:42.251Z,1.70
2023-04-18T20:53:10.824Z,1.60
2023-04-18T20:55:40.819Z,1.58
2023-04-18T20:58:09.547Z,1.60
2023-04-18T21:00:38.275Z,1.58
2023-04-18T21:03:06.710Z,3.15
2023-04-18T21:05:34.862Z,1.60
2023-04-18T21:08:04.180Z,1.98
2023-04-18T21:10:32.403Z,1.52
2023-04-18T21:13:02.180Z,1.90
2023-04-18T21:15:30.379Z,1.80
2023-04-18T21:18:00.761Z,2.00
2023-04-18T21:20:29.037Z,1.90
2023-04-18T21:22:57.086Z,2.17
2023-04-18T21:25:25.356Z,2.45
2023-04-18T21:27:53.478Z,1.98
2023-04-18T21:30:23.325Z,1.83
2023-04-18T21:32:51.696Z,2.25
2023-04-18T21:35:20.847Z,2.10
2023-04-18T21:37:50.776Z,2.15
2023-04-18T21:40:19.063Z,2.10
2023-04-18T21:42:48.660Z,1.88
2023-04-18T21:45:18.275Z,1.80
2023-04-18T21:47:47.853Z,2.35
2023-04-18T21:50:16.095Z,2.67
2023-04-18T21:52:44.171Z,2.10
2023-04-18T21:55:12.260Z,2.20
2023-04-18T21:57:40.373Z,1.60
2023-04-18T22:00:10.714Z,1.95
2023-04-18T22:02:39.013Z,2.00
2023-04-18T22:05:09.300Z,2.30
2023-04-18T22:07:50.098Z,2.05
2023-04-18T22:10:23.082Z,1.55
2023-04-18T22:12:54.127Z,1.90
2023-04-18T22:15:22.422Z,2.05
2023-04-18T22:17:50.597Z,1.65
2023-04-18T22:20:20.231Z,2.05
2023-04-18T22:22:48.370Z,2.10
2023-04-18T22:25:16.592Z,2.08
2023-04-18T22:27:46.703Z,1.80
2023-04-18T22:30:15.979Z,1.85
2023-04-18T22:32:44.189Z,1.52
2023-04-18T22:35:12.350Z,2.38
2023-04-18T22:37:41.843Z,1.88
2023-04-18T22:40:10.771Z,2.00
2023-04-18T22:42:38.972Z,1.98
2023-04-18T22:45:08.216Z,1.88
2023-04-18T22:47:36.733Z,1.80
2023-04-18T22:50:05.169Z,1.70
2023-04-18T22:52:33.469Z,1.75
2023-04-18T22:55:04.271Z,1.90
2023-04-18T22:57:32.383Z,1.88
2023-04-18T23:00:00.551Z,1.67
2023-04-18T23:02:29.035Z,2.47
2023-04-18T23:04:59.127Z,1.92
2023-04-18T23:07:27.308Z,1.90
2023-04-18T23:09:55.612Z,2.13
2023-04-18T23:12:25.278Z,1.95
2023-04-18T23:14:53.287Z,2.00
2023-04-18T23:17:21.957Z,1.88
2023-04-18T23:19:50.018Z,1.90
2023-04-18T23:22:18.116Z,1.88
2023-04-18T23:24:46.269Z,1.83
2023-04-18T23:27:14.333Z,1.88
2023-04-18T23:29:43.826Z,1.98
2023-04-18T23:32:11.890Z,1.88
2023-04-18T23:34:39.993Z,1.88
2023-04-18T23:37:09.087Z,1.75
2023-04-18T23:39:37.130Z,1.88
2023-04-18T23:42:11.282Z,2.00
2023-04-18T23:44:39.330Z,2.00
2023-04-18T23:47:08.838Z,1.95
2023-04-18T23:49:37.023Z,1.95
2023-04-18T23:52:06.256Z,1.90
2023-04-18T23:54:34.439Z,1.65
2023-04-18T23:57:02.511Z,1.85
2023-04-18T23:59:30.592Z,1.98
